createdAt,value
2023-11-18T00:02:11.230Z,10.85
2023-11-18T00:04:44.518Z,12.32
2023-11-18T00:07:17.754Z,9.80
2023-11-18T00:09:54.180Z,10.30
2023-11-18T00:12:27.690Z,10.00
2023-11-18T00:15:01.261Z,10.38
2023-11-18T00:17:34.127Z,9.68
2023-11-18T00:20:11.994Z,9.40
2023-11-18T00:22:46.412Z,9.68
2023-11-18T00:25:26.365Z,9.93
2023-11-18T00:28:01.618Z,10.50
2023-11-18T00:30:38.828Z,9.32
2023-11-18T00:33:12.543Z,10.60
2023-11-18T00:35:47.533Z,10.68
2023-11-18T00:38:27.259Z,9.93
2023-11-18T00:41:04.095Z,10.20
2023-11-18T00:43:37.321Z,10.15
2023-11-18T00:46:11.869Z,10.18
2023-11-18T00:48:46.646Z,9.88
2023-11-18T00:51:21.765Z,10.38
2023-11-18T00:53:55.807Z,10.00
2023-11-18T00:56:32.232Z,10.80
2023-11-18T00:59:08.278Z,9.85
2023-11-18T01:01:42.394Z,10.57
2023-11-18T01:04:16.060Z,10.95
2023-11-18T01:06:50.321Z,10.32
2023-11-18T01:09:23.386Z,10.77
2023-11-18T01:12:07.914Z,11.25
2023-11-18T01:14:43.957Z,10.82
2023-11-18T01:17:18.114Z,10.23
2023-11-18T01:19:51.667Z,10.65
2023-11-18T01:22:25.777Z,10.32
2023-11-18T01:24:59.986Z,10.45
2023-11-18T01:27:39.829Z,10.23
2023-11-18T01:30:18.234Z,10.20
2023-11-18T01:32:51.665Z,9.80
2023-11-18T01:35:28.652Z,9.23
2023-11-18T01:38:02.392Z,9.60
2023-11-18T01:40:39.263Z,10.27
2023-11-18T01:43:19.305Z,9.50
2023-11-18T01:45:55.103Z,9.13
2023-11-18T01:48:29.661Z,9.27
2023-11-18T01:51:03.104Z,9.82
2023-11-18T01:53:37.947Z,10.32
2023-11-18T01:56:13.210Z,9.52
2023-11-18T01:58:50.974Z,9.90
2023-11-18T02:01:24.862Z,9.55
2023-11-18T02:03:58.950Z,9.88
2023-11-18T02:06:33.677Z,9.95
2023-11-18T02:09:07.822Z,9.85
2023-11-18T02:11:46.608Z,9.23
2023-11-18T02:14:25.546Z,9.85
2023-11-18T02:17:05.173Z,8.55
2023-11-18T02:19:44.018Z,9.65
2023-11-18T02:22:18.779Z,9.63
2023-11-18T02:24:55.014Z,9.43
2023-11-18T02:27:34.120Z,9.15
2023-11-18T02:30:08.328Z,9.02
2023-11-18T02:32:46.587Z,8.98
2023-11-18T02:35:28.450Z,8.38
2023-11-18T02:38:04.553Z,9.38
2023-11-18T02:40:42.436Z,9.45
2023-11-18T02:43:20.134Z,9.45
2023-11-18T02:45:56.822Z,9.52
2023-11-18T02:48:33.953Z,11.55
2023-11-18T02:51:09.643Z,9.57
2023-11-18T02:53:43.236Z,10.10
2023-11-18T02:56:16.927Z,10.20
2023-11-18T02:58:52.414Z,9.88
2023-11-18T03:01:27.169Z,9.77
2023-11-18T03:04:00.251Z,9.52
2023-11-18T03:06:34.431Z,9.63
2023-11-18T03:09:09.406Z,9.63
2023-11-18T03:11:46.091Z,9.43
2023-11-18T03:14:21.598Z,10.43
2023-11-18T03:16:58.334Z,10.48
2023-11-18T03:19:33.741Z,10.02
2023-11-18T03:22:06.886Z,10.20
2023-11-18T03:24:40.294Z,10.32
2023-11-18T03:27:16.570Z,9.80
2023-11-18T03:29:53.689Z,10.05
2023-11-18T03:32:29.984Z,9.88
2023-11-18T03:35:04.098Z,9.63
2023-11-18T03:37:37.601Z,9.50
2023-11-18T03:40:17.780Z,8.65
2023-11-18T03:42:56.394Z,8.82
2023-11-18T03:45:33.054Z,8.90
2023-11-18T03:48:06.449Z,8.25
2023-11-18T03:50:39.923Z,7.95
2023-11-18T03:53:13.334Z,8.27
2023-11-18T03:55:46.573Z,8.32
2023-11-18T03:58:20.478Z,8.23
2023-11-18T04:00:58.196Z,8.50
2023-11-18T04:03:33.887Z,8.45
2023-11-18T04:06:06.605Z,8.45
2023-11-18T04:08:40.205Z,8.88
2023-11-18T04:11:13.252Z,9.00
2023-11-18T04:13:47.535Z,8.90
2023-11-18T04:16:23.693Z,8.88
2023-11-18T04:18:59.225Z,9.57
2023-11-18T04:21:38.313Z,10.20
2023-11-18T04:24:12.315Z,10.13
2023-11-18T04:26:45.298Z,10.75
2023-11-18T04:29:19.743Z,10.48
2023-11-18T04:32:02.130Z,10.55
2023-11-18T04:34:35.725Z,10.35
2023-11-18T04:37:08.891Z,10.65
2023-11-18T04:39:42.426Z,10.60
2023-11-18T04:42:17.042Z,10.77
2023-11-18T04:44:52.054Z,11.25
2023-11-18T04:47:28.702Z,11.13
2023-11-18T04:50:02.663Z,10.68
2023-11-18T04:52:38.487Z,12.30
2023-11-18T04:55:14.899Z,10.95
2023-11-18T04:57:48.780Z,11.35
2023-11-18T05:00:23.335Z,11.45
2023-11-18T05:03:02.676Z,11.15
2023-11-18T05:05:41.509Z,11.18
2023-11-18T05:08:24.330Z,11.43
2023-11-18T05:10:59.327Z,10.55
2023-11-18T05:13:32.893Z,10.98
2023-11-18T05:16:06.850Z,11.27
2023-11-18T05:18:42.922Z,11.10
2023-11-18T05:21:18.661Z,10.27
2023-11-18T05:23:52.806Z,10.70
2023-11-18T05:26:27.014Z,11.32
2023-11-18T05:29:00.376Z,10.52
2023-11-18T05:31:36.273Z,11.32
2023-11-18T05:34:14.115Z,11.40
2023-11-18T05:36:48.288Z,12.52
2023-11-18T05:39:22.308Z,10.77
2023-11-18T05:41:57.667Z,10.77
2023-11-18T05:44:39.216Z,12.43
2023-11-18T05:47:13.845Z,11.38
2023-11-18T05:49:49.655Z,11.10
2023-11-18T05:52:27.379Z,11.52
2023-11-18T05:55:01.583Z,11.73
2023-11-18T05:57:37.692Z,11.30
2023-11-18T06:00:11.233Z,11.77
2023-11-18T06:02:45.645Z,11.93
2023-11-18T06:05:22.966Z,12.18
2023-11-18T06:07:56.421Z,12.00
2023-11-18T06:10:29.973Z,12.07
2023-11-18T06:13:03.023Z,10.15
2023-11-18T06:15:40.077Z,11.30
2023-11-18T06:18:13.555Z,11.00
2023-11-18T06:20:49.757Z,10.93
2023-11-18T06:23:23.095Z,11.50
2023-11-18T06:25:56.033Z,12.43
2023-11-18T06:28:30.022Z,11.30
2023-11-18T06:31:03.152Z,11.65
2023-11-18T06:33:36.914Z,11.60
2023-11-18T06:36:12.879Z,12.25
2023-11-18T06:38:46.189Z,11.73
2023-11-18T06:41:19.631Z,11.32
2023-11-18T06:44:05.546Z,12.45
2023-11-18T06:46:41.892Z,11.23
2023-11-18T06:49:17.908Z,11.80
2023-11-18T06:51:53.169Z,12.00
2023-11-18T06:54:28.496Z,12.43
2023-11-18T06:57:01.194Z,12.70
2023-11-18T06:59:35.354Z,12.00
2023-11-18T07:02:08.503Z,12.30
2023-11-18T07:04:41.748Z,11.95
2023-11-18T07:07:16.737Z,12.35
2023-11-18T07:09:52.459Z,12.13
2023-11-18T07:12:27.277Z,12.98
2023-11-18T07:15:00.560Z,13.05
2023-11-18T07:17:32.924Z,13.20
2023-11-18T07:20:07.692Z,14.55
2023-11-18T07:22:42.585Z,13.25
2023-11-18T07:25:15.639Z,13.63
2023-11-18T07:27:48.510Z,13.98
2023-11-18T07:30:21.949Z,13.98
2023-11-18T07:33:04.939Z,12.40
2023-11-18T07:35:39.554Z,13.85
2023-11-18T07:38:15.254Z,13.40
2023-11-18T07:40:50.152Z,12.27
2023-11-18T07:43:23.374Z,13.50
2023-11-18T07:45:57.452Z,13.50
2023-11-18T07:48:32.964Z,13.50
2023-11-18T07:51:08.726Z,12.10
2023-11-18T07:53:44.565Z,12.55
2023-11-18T07:56:18.579Z,13.00
2023-11-18T07:58:54.008Z,13.57
2023-11-18T08:01:28.498Z,13.07
2023-11-18T08:04:01.934Z,13.15
2023-11-18T08:06:35.643Z,12.90
2023-11-18T08:09:15.247Z,12.70
2023-11-18T08:11:51.101Z,13.80
2023-11-18T08:14:24.522Z,12.95
2023-11-18T08:16:58.449Z,13.25
2023-11-18T08:19:32.657Z,12.88
2023-11-18T08:22:07.901Z,12.18
2023-11-18T08:24:44.742Z,11.80
2023-11-18T08:27:22.170Z,10.98
2023-11-18T08:29:56.480Z,11.73
2023-11-18T08:32:29.867Z,11.10
2023-11-18T08:35:03.978Z,11.98
2023-11-18T08:37:38.356Z,10.25
2023-11-18T08:40:16.895Z,11.05
2023-11-18T08:42:52.379Z,10.70
2023-11-18T08:45:29.583Z,10.25
2023-11-18T08:48:05.867Z,10.30
2023-11-18T08:50:41.612Z,11.80
2023-11-18T08:53:19.921Z,10.50
2023-11-18T08:55:56.484Z,10.80
2023-11-18T08:58:35.724Z,11.10
2023-11-18T09:01:15.913Z,11.15
2023-11-18T09:03:54.925Z,11.27
2023-11-18T09:06:58.697Z,10.20
2023-11-18T09:09:41.395Z,9.32
2023-11-18T09:12:16.832Z,10.20
2023-11-18T09:14:53.456Z,9.65
2023-11-18T09:17:29.318Z,9.10
2023-11-18T09:20:04.398Z,9.95
2023-11-18T09:22:39.196Z,9.52
2023-11-18T09:25:15.022Z,9.75
2023-11-18T09:27:49.714Z,10.25
2023-11-18T09:30:22.334Z,10.23
2023-11-18T09:33:00.338Z,10.05
2023-11-18T09:35:36.090Z,9.95
2023-11-18T09:38:08.269Z,9.90
2023-11-18T09:40:47.816Z,9.75
2023-11-18T09:43:25.333Z,10.15
2023-11-18T09:46:01.681Z,9.80
2023-11-18T09:48:42.710Z,10.23
2023-11-18T09:51:25.832Z,8.52
2023-11-18T09:54:06.737Z,8.75
2023-11-18T09:56:58.864Z,8.45
2023-11-18T09:59:45.019Z,8.32
2023-11-18T10:02:20.882Z,8.32
2023-11-18T10:04:59.412Z,8.88
2023-11-18T10:07:37.786Z,8.65
2023-11-18T10:10:16.870Z,8.57
2023-11-18T10:12:54.207Z,8.88
2023-11-18T10:15:33.089Z,8.43
2023-11-18T10:18:23.981Z,9.05
2023-11-18T10:21:01.902Z,9.05
2023-11-18T10:23:39.234Z,9.73
2023-11-18T10:26:20.032Z,9.05
2023-11-18T10:29:10.594Z,9.45
2023-11-18T10:32:05.624Z,9.13
2023-11-18T10:34:44.910Z,8.77
2023-11-18T10:37:18.641Z,8.52
2023-11-18T10:39:55.718Z,9.38
2023-11-18T10:42:35.793Z,8.68
2023-11-18T10:45:15.076Z,9.20
2023-11-18T10:47:53.323Z,9.50
2023-11-18T10:50:33.707Z,9.27
2023-11-18T10:53:13.342Z,9.98
2023-11-18T10:55:48.593Z,10.60
2023-11-18T10:58:27.309Z,11.30
2023-11-18T11:01:02.187Z,11.63
2023-11-18T11:03:38.762Z,10.85
2023-11-18T11:06:25.800Z,10.13
2023-11-18T11:09:00.640Z,11.00
2023-11-18T11:11:53.454Z,11.93
2023-11-18T11:14:37.525Z,10.90
2023-11-18T11:17:19.837Z,9.18
2023-11-18T11:20:13.604Z,8.55
2023-11-18T11:23:05.922Z,9.43
2023-11-18T11:25:52.526Z,8.40
2023-11-18T11:28:27.700Z,8.45
2023-11-18T11:31:08.385Z,8.15
2023-11-18T11:33:48.219Z,8.00
2023-11-18T11:36:31.308Z,8.15
2023-11-18T11:39:13.588Z,7.30
2023-11-18T11:41:52.539Z,7.57
2023-11-18T11:44:31.568Z,7.10
2023-11-18T11:47:09.231Z,6.90
2023-11-18T11:49:50.896Z,6.88
2023-11-18T11:52:39.342Z,6.72
2023-11-18T11:55:21.109Z,6.75
2023-11-18T11:58:00.365Z,7.38
2023-11-18T12:00:36.959Z,8.10
2023-11-18T12:03:20.801Z,11.63
2023-11-18T12:05:56.883Z,18.80
2023-11-18T12:08:32.247Z,11.73
2023-11-18T12:11:07.780Z,7.82
2023-11-18T12:13:46.744Z,7.32
2023-11-18T12:16:22.726Z,7.75
2023-11-18T12:19:46.620Z,7.72
2023-11-18T12:22:26.326Z,7.20
2023-11-18T12:25:31.562Z,7.75
2023-11-18T12:28:16.663Z,7.63
2023-11-18T12:30:58.735Z,7.13
2023-11-18T12:34:12.026Z,8.85
2023-11-18T12:37:19.710Z,10.55
2023-11-18T12:40:36.577Z,12.38
2023-11-18T12:43:26.738Z,25.40
2023-11-18T12:46:38.231Z,15.50
2023-11-18T12:49:19.640Z,10.35
2023-11-18T12:51:52.829Z,12.93
2023-11-18T12:54:39.099Z,9.32
2023-11-18T12:57:15.864Z,10.77
2023-11-18T12:59:53.593Z,9.75
2023-11-18T13:02:26.843Z,9.45
2023-11-18T13:05:11.593Z,8.80
2023-11-18T13:07:51.299Z,8.98
2023-11-18T13:10:24.595Z,9.18
2023-11-18T13:13:00.349Z,9.77
2023-11-18T13:15:38.019Z,12.30
2023-11-18T13:18:14.185Z,8.20
2023-11-18T13:21:00.921Z,7.88
2023-11-18T13:23:36.467Z,8.90
2023-11-18T13:26:17.324Z,9.70
2023-11-18T13:28:52.842Z,11.82
2023-11-18T13:31:44.564Z,9.15
2023-11-18T13:34:24.545Z,11.80
2023-11-18T13:37:24.667Z,11.05
2023-11-18T13:40:19.240Z,13.50
2023-11-18T13:43:19.074Z,8.82
2023-11-18T13:46:09.718Z,8.55
2023-11-18T13:49:02.302Z,8.40
2023-11-18T13:52:02.822Z,9.02
2023-11-18T13:55:01.354Z,8.25
2023-11-18T13:57:50.084Z,10.27
2023-11-18T14:00:32.406Z,9.05
2023-11-18T14:03:12.171Z,8.82
2023-11-18T14:05:48.444Z,10.40
2023-11-18T14:08:22.488Z,9.52
2023-11-18T14:11:02.499Z,9.70
2023-11-18T14:13:36.430Z,9.00
2023-11-18T14:16:14.222Z,9.30
2023-11-18T14:18:47.306Z,9.77
2023-11-18T14:21:21.966Z,9.90
2023-11-18T14:23:57.545Z,10.02
2023-11-18T14:26:29.392Z,10.43
2023-11-18T14:29:03.898Z,10.27
2023-11-18T14:31:36.006Z,10.77
2023-11-18T14:34:11.508Z,10.32
2023-11-18T14:36:46.332Z,10.27
2023-11-18T14:39:19.666Z,9.70
2023-11-18T14:41:51.567Z,10.40
2023-11-18T14:44:23.663Z,10.15
2023-11-18T14:46:56.433Z,9.95
2023-11-18T14:49:28.626Z,10.98
2023-11-18T14:52:19.306Z,10.30
2023-11-18T14:54:59.565Z,11.30
2023-11-18T14:57:31.546Z,9.35
2023-11-18T15:00:03.847Z,11.05
2023-11-18T15:02:37.464Z,10.95
2023-11-18T15:05:11.225Z,10.57
2023-11-18T15:07:46.825Z,10.90
2023-11-18T15:10:22.932Z,11.27
2023-11-18T15:13:02.820Z,11.50
2023-11-18T15:15:37.240Z,11.43
2023-11-18T15:18:16.085Z,11.30
2023-11-18T15:20:50.155Z,11.82
2023-11-18T15:23:29.311Z,10.48
2023-11-18T15:26:06.989Z,12.50
2023-11-18T15:28:43.633Z,11.10
2023-11-18T15:31:17.630Z,11.65
2023-11-18T15:33:53.838Z,11.38
2023-11-18T15:36:49.452Z,11.38
2023-11-18T15:39:29.789Z,11.02
2023-11-18T15:42:03.707Z,10.65
2023-11-18T15:44:40.060Z,11.05
2023-11-18T15:47:15.528Z,10.90
2023-11-18T15:49:49.716Z,11.18
2023-11-18T15:52:30.954Z,10.27
2023-11-18T15:55:27.844Z,11.15
2023-11-18T15:58:02.266Z,10.10
2023-11-18T16:00:41.632Z,11.30
2023-11-18T16:03:16.473Z,10.95
2023-11-18T16:05:51.202Z,10.27
2023-11-18T16:08:28.273Z,11.07
2023-11-18T16:11:10.153Z,11.32
2023-11-18T16:13:44.138Z,10.10
2023-11-18T16:16:17.822Z,10.05
2023-11-18T16:22:51.701Z,9.80
2023-11-18T16:25:44.583Z,10.90
2023-11-18T16:28:23.664Z,10.70
2023-11-18T16:30:59.193Z,14.90
2023-11-18T16:33:46.956Z,11.27
2023-11-18T16:36:26.841Z,10.85
2023-11-18T16:39:01.149Z,11.23
2023-11-18T16:41:43.471Z,10.82
2023-11-18T16:44:20.890Z,11.20
2023-11-18T16:46:53.838Z,10.68
2023-11-18T16:49:25.941Z,11.63
2023-11-18T16:52:04.714Z,12.05
2023-11-18T16:54:41.440Z,11.70
2023-11-18T16:57:14.832Z,12.18
2023-11-18T16:59:53.247Z,11.00
2023-11-18T17:02:26.564Z,11.77
2023-11-18T17:04:59.062Z,11.80
2023-11-18T17:07:32.022Z,11.63
2023-11-18T17:10:06.027Z,11.77
2023-11-18T17:12:39.343Z,11.52
2023-11-18T17:15:17.470Z,11.75
2023-11-18T17:17:55.334Z,11.32
2023-11-18T17:20:28.065Z,11.55
2023-11-18T17:23:01.675Z,11.25
2023-11-18T17:25:34.664Z,10.90
2023-11-18T17:28:07.871Z,11.15
2023-11-18T17:30:48.578Z,11.43
2023-11-18T17:33:44.230Z,10.93
2023-11-18T17:36:22.303Z,10.85
2023-11-18T17:38:59.518Z,12.15
2023-11-18T17:41:33.842Z,11.90
2023-11-18T17:44:11.240Z,10.85
2023-11-18T17:46:51.501Z,10.88
2023-11-18T17:49:32.596Z,10.50
2023-11-18T17:52:05.854Z,10.00
2023-11-18T17:54:43.615Z,9.98
2023-11-18T17:57:20.731Z,9.73
2023-11-18T18:00:00.000Z,10.07
2023-11-18T18:02:36.672Z,9.80
2023-11-18T18:05:09.814Z,10.05
2023-11-18T18:07:43.119Z,9.27
2023-11-18T18:10:18.239Z,9.27
2023-11-18T18:12:56.812Z,8.80
2023-11-18T18:15:31.000Z,8.55
2023-11-18T18:18:12.572Z,9.32
2023-11-18T18:20:49.718Z,9.10
2023-11-18T18:23:21.724Z,9.07
2023-11-18T18:25:53.846Z,8.98
2023-11-18T18:28:25.791Z,9.88
2023-11-18T18:30:58.486Z,9.15
2023-11-18T18:33:33.102Z,8.75
2023-11-18T18:36:06.841Z,8.93
2023-11-18T18:38:38.849Z,9.18
2023-11-18T18:41:11.089Z,10.25
2023-11-18T18:43:44.426Z,9.55
2023-11-18T18:46:16.826Z,9.20
2023-11-18T18:48:51.700Z,9.88
2023-11-18T18:51:24.120Z,9.95
2023-11-18T18:53:55.981Z,9.82
2023-11-18T18:56:28.074Z,10.25
2023-11-18T18:59:00.254Z,9.38
2023-11-18T19:01:32.752Z,9.52
2023-11-18T19:04:09.637Z,9.82
2023-11-18T19:06:41.901Z,10.30
2023-11-18T19:09:13.784Z,10.43
2023-11-18T19:11:46.206Z,12.15
2023-11-18T19:14:19.224Z,10.18
2023-11-18T19:16:52.416Z,10.23
2023-11-18T19:19:27.961Z,11.07
2023-11-18T19:22:01.731Z,10.32
2023-11-18T19:24:35.122Z,9.93
2023-11-18T19:27:11.626Z,11.25
2023-11-18T19:32:32.343Z,9.68
2023-11-18T19:35:09.420Z,10.30
2023-11-18T19:37:42.554Z,9.85
2023-11-18T19:40:17.215Z,9.65
2023-11-18T19:42:51.421Z,10.35
2023-11-18T19:45:24.081Z,9.82
2023-11-18T19:47:59.050Z,10.02
2023-11-18T19:50:34.284Z,10.35
2023-11-18T19:53:08.886Z,10.48
2023-11-18T19:55:41.342Z,9.80
2023-11-18T19:58:14.900Z,9.13
2023-11-18T20:00:49.137Z,9.43
2023-11-18T20:03:24.298Z,9.65
2023-11-18T20:06:00.035Z,9.25
2023-11-18T20:08:33.568Z,9.10
2023-11-18T20:11:12.169Z,9.55
2023-11-18T20:13:45.848Z,10.38
2023-11-18T20:16:19.101Z,9.63
2023-11-18T20:18:53.535Z,9.18
2023-11-18T20:21:29.710Z,10.30
2023-11-18T20:24:03.834Z,9.45
2023-11-18T20:26:36.944Z,9.65
2023-11-18T20:29:10.753Z,9.63
2023-11-18T20:31:44.321Z,8.90
2023-11-18T20:34:19.642Z,8.98
2023-11-18T20:36:56.258Z,9.93
2023-11-18T20:39:30.903Z,8.88
2023-11-18T20:42:04.777Z,8.32
2023-11-18T20:44:39.433Z,9.27
2023-11-18T20:47:40.431Z,8.02
2023-11-18T20:50:37.497Z,8.88
2023-11-18T20:53:12.863Z,8.93
2023-11-18T20:55:45.593Z,8.10
2023-11-18T20:58:20.525Z,7.57
2023-11-18T21:00:56.364Z,8.32
2023-11-18T21:03:29.471Z,8.48
2023-11-18T21:06:02.540Z,7.70
2023-11-18T21:08:38.272Z,8.35
2023-11-18T21:11:12.736Z,8.80
2023-11-18T21:13:45.466Z,8.25
2023-11-18T21:16:19.104Z,8.30
2023-11-18T21:18:52.367Z,8.60
2023-11-18T21:21:26.270Z,8.15
2023-11-18T21:24:04.534Z,7.93
2023-11-18T21:26:38.146Z,7.85
2023-11-18T21:29:12.097Z,7.82
2023-11-18T21:31:47.916Z,7.78
2023-11-18T21:34:23.315Z,9.05
2023-11-18T21:36:58.270Z,8.20
2023-11-18T21:39:34.828Z,7.75
2023-11-18T21:42:15.332Z,7.50
2023-11-18T21:44:49.963Z,7.63
2023-11-18T21:47:27.348Z,7.90
2023-11-18T21:50:00.462Z,8.02
2023-11-18T21:52:38.207Z,8.48
2023-11-18T21:55:15.107Z,8.63
2023-11-18T21:57:49.786Z,8.48
2023-11-18T22:00:23.464Z,8.45
2023-11-18T22:02:57.070Z,8.70
2023-11-18T22:05:29.805Z,8.40
2023-11-18T22:08:02.644Z,8.77
2023-11-18T22:10:38.193Z,8.68
2023-11-18T22:13:10.857Z,8.27
2023-11-18T22:15:43.220Z,9.15
2023-11-18T22:18:16.284Z,10.38
2023-11-18T22:20:51.618Z,8.43
2023-11-18T22:23:24.513Z,8.57
2023-11-18T22:26:18.395Z,8.25
2023-11-18T22:29:22.326Z,8.45
2023-11-18T22:31:56.871Z,8.20
2023-11-18T22:34:29.676Z,8.30
2023-11-18T22:37:02.583Z,9.00
2023-11-18T22:39:36.777Z,9.65
2023-11-18T22:42:14.618Z,7.95
2023-11-18T22:44:47.135Z,8.90
2023-11-18T22:47:20.798Z,8.93
2023-11-18T22:49:53.501Z,9.45
2023-11-18T22:52:27.301Z,8.70
2023-11-18T22:55:00.066Z,9.27
2023-11-18T22:57:39.697Z,9.57
2023-11-18T23:00:30.230Z,10.82
2023-11-18T23:03:05.610Z,9.10
2023-11-18T23:05:41.695Z,9.18
2023-11-18T23:08:18.593Z,9.48
2023-11-18T23:10:52.637Z,9.45
2023-11-18T23:13:32.341Z,9.90
2023-11-18T23:16:08.063Z,9.55
2023-11-18T23:18:45.408Z,9.20
2023-11-18T23:21:21.260Z,9.63
2023-11-18T23:23:56.332Z,11.18
2023-11-18T23:26:34.026Z,9.60
2023-11-18T23:29:13.207Z,9.73
2023-11-18T23:31:48.444Z,10.13
2023-11-18T23:34:23.572Z,10.18
2023-11-18T23:37:00.500Z,9.70
2023-11-18T23:39:35.480Z,10.00
2023-11-18T23:42:11.924Z,9.77
2023-11-18T23:44:48.827Z,9.30
2023-11-18T23:47:23.946Z,9.57
2023-11-18T23:49:59.069Z,11.02
2023-11-18T23:52:33.534Z,9.82
2023-11-18T23:55:14.990Z,10.32
2023-11-18T23:57:49.187Z,9.63
